CDT,Max TemperatureF,Mean TemperatureF,Min TemperatureF,Max Dew PointF,MeanDew PointF,Min DewpointF,Max Humidity, Mean Humidity, Min Humidity, Max Sea Level PressureIn, Mean Sea Level PressureIn, Min Sea Level PressureIn, Max VisibilityMiles, Mean VisibilityMiles, Min VisibilityMiles, Max Wind SpeedMPH, Mean Wind SpeedMPH, Max Gust SpeedMPH,PrecipitationIn, CloudCover, Events, WindDirDegrees
2013-10-1,70,62,48,51,41,31,77,50,24,30.01,29.82,29.53,10,10,10,22,12,31,0.00,0,,270
2013-10-2,68,55,44,54,45,36,100,75,32,30.03,29.97,29.91,10,8,1,16,7,25,0.94,5,Rain-Thunderstorm,75
2013-10-3,54,51,48,52,50,48,100,93,82,30.03,29.96,29.92,10,7,0,16,10,22,0.12,7,Fog-Rain,41
2013-10-4,55,52,50,52,49,48,100,92,77,30.06,29.98,29.85,10,8,2,26,16,36,0.23,8,Rain-Thunderstorm,62
2013-10-5,54,50,48,52,48,40,100,93,66,29.87,29.79,29.76,10,6,1,23,14,31,0.07,8,,99
2013-10-6,57,51,45,48,44,39,100,87,57,29.91,29.81,29.74,10,8,2,18,10,25,0.06,6,Rain,348
2013-10-7,64,52,39,42,39,36,97,63,35,30.00,29.95,29.88,10,10,9,13,7,,0.00,0,,265
2013-10-8,77,62,48,46,44,40,77,52,32,29.91,29.77,29.69,10,10,2,23,14,34,0.00,0,,177
2013-10-9,71,63,55,52,48,45,75,62,47,30.00,29.95,29.84,10,10,10,14,11,22,0.00,0,,167
2013-10-10,78,64,51,54,49,47,86,62,37,29.99,29.88,29.79,10,10,10,25,11,32,0.00,0,,149
2013-10-11,66,60,51,60,54,44,93,78,54,29.80,29.63,29.49,10,9,2,31,16,47,0.29,5,Rain-Thunderstorm,150
2013-10-12,50,47,43,45,42,35,97,85,71,30.23,29.91,29.64,10,8,2,24,17,33,0.05,7,Rain,264
2013-10-13,57,46,35,39,35,30,92,68,37,30.45,30.39,30.25,10,10,10,10,5,,0.00,1,,242
2013-10-14,46,45,44,43,40,35,93,81,63,30.40,30.19,29.93,10,9,5,22,11,32,0.76,7,Rain,100
2013-10-15,46,44,42,45,43,39,100,93,81,29.99,29.86,29.75,10,7,2,21,18,30,0.59,8,Rain,30
2013-10-16,55,44,34,39,36,34,100,82,48,30.03,29.96,29.88,10,8,0,12,8,,0.00,2,Fog,277
2013-10-17,46,42,39,45,39,34,97,90,82,29.98,29.88,29.83,10,9,4,16,7,22,0.24,7,Rain,318
2013-10-18,48,40,32,36,32,29,93,77,51,30.03,29.96,29.84,10,10,10,14,7,,0.00,4,,270
2013-10-19,41,36,32,37,33,27,100,86,60,29.83,29.76,29.69,10,10,7,16,9,22,0.03,7,Rain,279
2013-10-20,39,36,33,34,32,22,100,91,61,29.97,29.73,29.62,10,7,1,23,9,32,0.14,8,Rain-Snow,88
2013-10-21,37,34,30,24,22,18,76,64,55,30.01,30.00,29.98,10,10,10,20,13,30,0.00,7,,307
2013-10-22,39,32,28,30,27,24,92,76,59,30.10,30.06,30.01,10,10,10,13,7,,0.00,7,,325
2013-10-23,37,34,30,29,22,18,88,65,48,30.19,30.11,30.06,10,10,10,21,10,25,0.00,7,,322
2013-10-24,39,34,30,32,30,27,96,85,65,30.35,30.27,30.16,10,10,7,13,8,,0.00,7,Snow,291
2013-10-25,59,42,26,42,32,24,92,71,51,30.35,30.06,29.83,10,10,10,21,11,33,0.00,0,,237
2013-10-26,41,36,30,28,27,25,85,68,57,30.19,30.10,29.94,10,10,10,21,15,30,0.00,4,,308
2013-10-27,53,42,33,33,29,26,79,66,46,30.24,29.97,29.83,10,10,10,18,12,23,0.00,0,,316
2013-10-28,37,31,25,25,20,18,78,64,45,30.52,30.45,30.27,10,10,10,13,11,22,0.00,0,,61
2013-10-29,34,30,28,32,28,21,100,91,69,30.47,30.28,30.15,10,6,1,13,8,,0.04,8,Rain-Snow,76
2013-10-30,41,37,33,41,37,33,100,100,93,30.14,29.89,29.70,8,2,0,9,6,,0.05,8,Fog-Rain,98
2013-10-31,39,37,35,38,37,35,100,99,93,29.72,29.57,29.46,10,3,0,12,7,,0.00,8,Fog,286